sensor_id;sensor_type;location;lat;lon;timestamp;temperature;humidity
77052;SHT30;65980;44.898;8.602;2024-02-14T00:02:14;6.51;77.95
77052;SHT30;65980;44.898;8.602;2024-02-14T00:05:18;6.58;77.06
77052;SHT30;65980;44.898;8.602;2024-02-14T00:08:22;6.62;76.05
77052;SHT30;65980;44.898;8.602;2024-02-14T00:11:26;6.38;76.30
77052;SHT30;65980;44.898;8.602;2024-02-14T00:14:31;6.11;77.59
77052;SHT30;65980;44.898;8.602;2024-02-14T00:17:35;5.80;78.00
77052;SHT30;65980;44.898;8.602;2024-02-14T00:20:39;5.92;78.19
77052;SHT30;65980;44.898;8.602;2024-02-14T00:23:43;6.11;77.59
77052;SHT30;65980;44.898;8.602;2024-02-14T00:26:47;5.86;77.75
77052;SHT30;65980;44.898;8.602;2024-02-14T00:29:51;5.92;78.00
77052;SHT30;65980;44.898;8.602;2024-02-14T00:32:55;6.04;77.87
77052;SHT30;65980;44.898;8.602;2024-02-14T00:35:59;5.99;77.26
77052;SHT30;65980;44.898;8.602;2024-02-14T00:39:03;5.69;79.17
77052;SHT30;65980;44.898;8.602;2024-02-14T00:42:08;5.90;77.34
77052;SHT30;65980;44.898;8.602;2024-02-14T00:45:12;5.48;78.97
77052;SHT30;65980;44.898;8.602;2024-02-14T00:48:16;5.28;80.27
77052;SHT30;65980;44.898;8.602;2024-02-14T00:51:21;4.87;81.97
77052;SHT30;65980;44.898;8.602;2024-02-14T00:54:25;4.79;82.76
77052;SHT30;65980;44.898;8.602;2024-02-14T00:57:29;4.83;82.62
77052;SHT30;65980;44.898;8.602;2024-02-14T01:00:34;4.85;82.34
77052;SHT30;65980;44.898;8.602;2024-02-14T01:03:38;4.82;82.74
77052;SHT30;65980;44.898;8.602;2024-02-14T01:06:42;4.89;82.42
77052;SHT30;65980;44.898;8.602;2024-02-14T01:09:46;4.99;82.02
77052;SHT30;65980;44.898;8.602;2024-02-14T01:12:51;5.26;81.35
77052;SHT30;65980;44.898;8.602;2024-02-14T01:15:55;5.17;81.61
77052;SHT30;65980;44.898;8.602;2024-02-14T01:18:59;5.42;80.92
77052;SHT30;65980;44.898;8.602;2024-02-14T01:22:03;4.95;80.71
77052;SHT30;65980;44.898;8.602;2024-02-14T01:25:07;4.58;82.28
77052;SHT30;65980;44.898;8.602;2024-02-14T01:28:11;4.42;82.65
77052;SHT30;65980;44.898;8.602;2024-02-14T01:31:15;4.36;83.05
77052;SHT30;65980;44.898;8.602;2024-02-14T01:34:19;4.23;83.54
77052;SHT30;65980;44.898;8.602;2024-02-14T01:37:23;4.33;83.27
77052;SHT30;65980;44.898;8.602;2024-02-14T01:40:29;4.42;83.07
77052;SHT30;65980;44.898;8.602;2024-02-14T01:43:42;4.72;81.30
77052;SHT30;65980;44.898;8.602;2024-02-14T01:46:47;4.79;80.91
77052;SHT30;65980;44.898;8.602;2024-02-14T01:49:51;4.86;80.93
77052;SHT30;65980;44.898;8.602;2024-02-14T01:52:57;4.72;80.47
77052;SHT30;65980;44.898;8.602;2024-02-14T01:56:03;4.54;81.50
77052;SHT30;65980;44.898;8.602;2024-02-14T01:59:08;4.72;81.12
77052;SHT30;65980;44.898;8.602;2024-02-14T02:02:13;4.71;80.73
77052;SHT30;65980;44.898;8.602;2024-02-14T02:05:17;4.86;80.24
77052;SHT30;65980;44.898;8.602;2024-02-14T02:08:21;4.71;80.81
77052;SHT30;65980;44.898;8.602;2024-02-14T02:11:25;4.80;80.61
77052;SHT30;65980;44.898;8.602;2024-02-14T02:14:50;4.93;80.52
77052;SHT30;65980;44.898;8.602;2024-02-14T02:18:15;5.10;79.28
77052;SHT30;65980;44.898;8.602;2024-02-14T02:21:39;4.96;78.31
77052;SHT30;65980;44.898;8.602;2024-02-14T02:24:43;4.30;81.39
77052;SHT30;65980;44.898;8.602;2024-02-14T02:27:49;4.20;81.87
77052;SHT30;65980;44.898;8.602;2024-02-14T02:31:05;3.92;83.44
77052;SHT30;65980;44.898;8.602;2024-02-14T02:34:10;4.17;83.11
77052;SHT30;65980;44.898;8.602;2024-02-14T02:37:14;4.09;82.57
77052;SHT30;65980;44.898;8.602;2024-02-14T02:40:46;4.04;82.36
77052;SHT30;65980;44.898;8.602;2024-02-14T02:44:10;4.04;83.20
77052;SHT30;65980;44.898;8.602;2024-02-14T02:47:40;4.30;82.02
77052;SHT30;65980;44.898;8.602;2024-02-14T02:51:04;4.51;80.87
77052;SHT30;65980;44.898;8.602;2024-02-14T02:54:47;4.52;80.15
77052;SHT30;65980;44.898;8.602;2024-02-14T02:58:01;3.90;82.96
77052;SHT30;65980;44.898;8.602;2024-02-14T03:01:08;3.92;83.36
77052;SHT30;65980;44.898;8.602;2024-02-14T03:04:33;4.20;82.87
77052;SHT30;65980;44.898;8.602;2024-02-14T03:07:56;4.45;81.55
77052;SHT30;65980;44.898;8.602;2024-02-14T03:11:23;4.13;81.24
77052;SHT30;65980;44.898;8.602;2024-02-14T03:14:49;4.09;81.97
77052;SHT30;65980;44.898;8.602;2024-02-14T03:18:11;4.09;81.08
77052;SHT30;65980;44.898;8.602;2024-02-14T03:21:15;4.34;80.34
77052;SHT30;65980;44.898;8.602;2024-02-14T03:24:20;4.48;79.60
77052;SHT30;65980;44.898;8.602;2024-02-14T03:27:24;4.20;80.89
77052;SHT30;65980;44.898;8.602;2024-02-14T03:30:31;4.23;79.03
77052;SHT30;65980;44.898;8.602;2024-02-14T03:33:36;4.09;80.80
77052;SHT30;65980;44.898;8.602;2024-02-14T03:36:41;4.03;80.01
77052;SHT30;65980;44.898;8.602;2024-02-14T03:39:47;3.57;83.14
77052;SHT30;65980;44.898;8.602;2024-02-14T03:42:51;3.61;82.63
77052;SHT30;65980;44.898;8.602;2024-02-14T03:45:56;3.48;83.50
77052;SHT30;65980;44.898;8.602;2024-02-14T03:49:00;3.34;84.71
77052;SHT30;65980;44.898;8.602;2024-02-14T03:52:04;3.32;83.69
77052;SHT30;65980;44.898;8.602;2024-02-14T03:55:13;3.34;83.58
77052;SHT30;65980;44.898;8.602;2024-02-14T03:58:17;3.34;83.18
77052;SHT30;65980;44.898;8.602;2024-02-14T04:01:26;3.41;82.96
77052;SHT30;65980;44.898;8.602;2024-02-14T04:04:31;3.45;82.92
77052;SHT30;65980;44.898;8.602;2024-02-14T04:07:37;3.59;82.28
77052;SHT30;65980;44.898;8.602;2024-02-14T04:10:41;3.64;81.43
77052;SHT30;65980;44.898;8.602;2024-02-14T04:13:46;3.47;82.18
77052;SHT30;65980;44.898;8.602;2024-02-14T04:16:51;3.26;82.93
77052;SHT30;65980;44.898;8.602;2024-02-14T04:19:55;3.26;82.59
77052;SHT30;65980;44.898;8.602;2024-02-14T04:22:59;3.30;81.80
77052;SHT30;65980;44.898;8.602;2024-02-14T04:26:03;3.10;82.88
77052;SHT30;65980;44.898;8.602;2024-02-14T04:29:08;2.96;82.87
77052;SHT30;65980;44.898;8.602;2024-02-14T04:32:12;2.88;83.16
77052;SHT30;65980;44.898;8.602;2024-02-14T04:35:17;2.93;82.85
77052;SHT30;65980;44.898;8.602;2024-02-14T04:38:24;2.82;83.45
77052;SHT30;65980;44.898;8.602;2024-02-14T04:41:29;2.91;83.20
77052;SHT30;65980;44.898;8.602;2024-02-14T04:44:34;2.96;83.12
77052;SHT30;65980;44.898;8.602;2024-02-14T04:47:40;3.13;82.39
77052;SHT30;65980;44.898;8.602;2024-02-14T04:50:46;3.37;81.34
77052;SHT30;65980;44.898;8.602;2024-02-14T04:53:51;3.41;81.00
77052;SHT30;65980;44.898;8.602;2024-02-14T04:56:57;3.41;81.60
77052;SHT30;65980;44.898;8.602;2024-02-14T05:00:01;3.57;80.93
77052;SHT30;65980;44.898;8.602;2024-02-14T05:03:06;3.71;79.86
77052;SHT30;65980;44.898;8.602;2024-02-14T05:06:10;3.58;79.66
77052;SHT30;65980;44.898;8.602;2024-02-14T05:09:14;3.55;79.90
77052;SHT30;65980;44.898;8.602;2024-02-14T05:12:18;3.64;80.29
77052;SHT30;65980;44.898;8.602;2024-02-14T05:15:23;3.48;81.27
77052;SHT30;65980;44.898;8.602;2024-02-14T05:18:27;3.52;80.61
77052;SHT30;65980;44.898;8.602;2024-02-14T05:21:31;3.54;80.97
77052;SHT30;65980;44.898;8.602;2024-02-14T05:24:34;3.71;80.12
77052;SHT30;65980;44.898;8.602;2024-02-14T05:27:40;3.64;79.89
77052;SHT30;65980;44.898;8.602;2024-02-14T05:30:44;3.59;80.44
77052;SHT30;65980;44.898;8.602;2024-02-14T05:34:02;3.72;80.05
77052;SHT30;65980;44.898;8.602;2024-02-14T05:37:07;3.87;79.52
77052;SHT30;65980;44.898;8.602;2024-02-14T05:40:12;3.76;78.77
77052;SHT30;65980;44.898;8.602;2024-02-14T05:43:15;3.34;81.44
77052;SHT30;65980;44.898;8.602;2024-02-14T05:46:21;3.48;81.37
77052;SHT30;65980;44.898;8.602;2024-02-14T05:49:26;3.54;80.97
77052;SHT30;65980;44.898;8.602;2024-02-14T05:52:30;3.67;79.57
77052;SHT30;65980;44.898;8.602;2024-02-14T05:55:33;3.75;79.20
77052;SHT30;65980;44.898;8.602;2024-02-14T05:58:38;3.10;81.95
77052;SHT30;65980;44.898;8.602;2024-02-14T06:01:42;3.38;81.39
77052;SHT30;65980;44.898;8.602;2024-02-14T06:04:46;3.61;80.12
77052;SHT30;65980;44.898;8.602;2024-02-14T06:07:50;3.69;79.47
77052;SHT30;65980;44.898;8.602;2024-02-14T06:10:53;3.86;79.25
77052;SHT30;65980;44.898;8.602;2024-02-14T06:13:58;3.83;78.83
77052;SHT30;65980;44.898;8.602;2024-02-14T06:17:02;3.64;80.99
77052;SHT30;65980;44.898;8.602;2024-02-14T06:20:06;3.67;80.12
77052;SHT30;65980;44.898;8.602;2024-02-14T06:23:12;3.92;78.60
77052;SHT30;65980;44.898;8.602;2024-02-14T06:26:17;3.41;80.07
77052;SHT30;65980;44.898;8.602;2024-02-14T06:29:22;3.44;80.15
77052;SHT30;65980;44.898;8.602;2024-02-14T06:32:27;3.38;80.85
77052;SHT30;65980;44.898;8.602;2024-02-14T06:39:25;3.06;82.23
77052;SHT30;65980;44.898;8.602;2024-02-14T06:42:30;3.23;81.61
77052;SHT30;65980;44.898;8.602;2024-02-14T06:45:38;3.44;81.46
77052;SHT30;65980;44.898;8.602;2024-02-14T07:02:50;4.16;80.14
77052;SHT30;65980;44.898;8.602;2024-02-14T07:05:55;4.37;78.93
77052;SHT30;65980;44.898;8.602;2024-02-14T07:08:58;3.83;79.35
77052;SHT30;65980;44.898;8.602;2024-02-14T07:12:06;3.27;81.34
77052;SHT30;65980;44.898;8.602;2024-02-14T07:15:10;3.14;81.66
77052;SHT30;65980;44.898;8.602;2024-02-14T07:21:43;3.44;80.82
77052;SHT30;65980;44.898;8.602;2024-02-14T07:24:49;3.28;81.41
77052;SHT30;65980;44.898;8.602;2024-02-14T07:27:53;3.26;81.41
77052;SHT30;65980;44.898;8.602;2024-02-14T07:30:59;3.57;80.23
77052;SHT30;65980;44.898;8.602;2024-02-14T07:34:03;4.23;77.73
77052;SHT30;65980;44.898;8.602;2024-02-14T07:37:06;5.26;75.19
77052;SHT30;65980;44.898;8.602;2024-02-14T07:40:10;5.80;71.94
77052;SHT30;65980;44.898;8.602;2024-02-14T07:43:34;4.97;75.49
77052;SHT30;65980;44.898;8.602;2024-02-14T07:50:10;5.49;74.64
77052;SHT30;65980;44.898;8.602;2024-02-14T07:53:15;6.28;70.97
77052;SHT30;65980;44.898;8.602;2024-02-14T07:56:22;6.23;71.33
77052;SHT30;65980;44.898;8.602;2024-02-14T07:59:31;6.59;70.04
77052;SHT30;65980;44.898;8.602;2024-02-14T08:03:23;6.59;69.74
77052;SHT30;65980;44.898;8.602;2024-02-14T08:06:28;6.28;70.65
77052;SHT30;65980;44.898;8.602;2024-02-14T08:09:43;6.75;68.86
77052;SHT30;65980;44.898;8.602;2024-02-14T08:12:51;6.89;69.40
77052;SHT30;65980;44.898;8.602;2024-02-14T08:15:55;6.64;69.17
77052;SHT30;65980;44.898;8.602;2024-02-14T08:32:01;7.65;66.26
77052;SHT30;65980;44.898;8.602;2024-02-14T08:39:26;7.80;64.43
77052;SHT30;65980;44.898;8.602;2024-02-14T08:42:37;7.61;65.96
77052;SHT30;65980;44.898;8.602;2024-02-14T08:45:42;7.68;66.33
77052;SHT30;65980;44.898;8.602;2024-02-14T08:53:01;9.27;61.21
77052;SHT30;65980;44.898;8.602;2024-02-14T08:56:08;9.11;61.81
77052;SHT30;65980;44.898;8.602;2024-02-14T08:59:32;8.73;63.61
77052;SHT30;65980;44.898;8.602;2024-02-14T09:02:51;8.56;63.70
77052;SHT30;65980;44.898;8.602;2024-02-14T09:06:29;10.24;60.19
77052;SHT30;65980;44.898;8.602;2024-02-14T09:21:48;10.69;58.43
77052;SHT30;65980;44.898;8.602;2024-02-14T09:34:00;12.70;53.32
77052;SHT30;65980;44.898;8.602;2024-02-14T09:37:07;12.66;52.36
77052;SHT30;65980;44.898;8.602;2024-02-14T09:40:30;13.20;52.34
77052;SHT30;65980;44.898;8.602;2024-02-14T10:02:04;13.55;53.65
77052;SHT30;65980;44.898;8.602;2024-02-14T10:05:09;13.12;54.08
77052;SHT30;65980;44.898;8.602;2024-02-14T10:08:18;14.34;51.07
77052;SHT30;65980;44.898;8.602;2024-02-14T10:11:23;13.56;52.32
77052;SHT30;65980;44.898;8.602;2024-02-14T10:14:30;14.09;50.07
77052;SHT30;65980;44.898;8.602;2024-02-14T10:17:34;13.73;50.82
77052;SHT30;65980;44.898;8.602;2024-02-14T10:20:39;13.41;51.77
77052;SHT30;65980;44.898;8.602;2024-02-14T10:23:50;13.29;50.84
77052;SHT30;65980;44.898;8.602;2024-02-14T10:27:05;12.70;52.88
77052;SHT30;65980;44.898;8.602;2024-02-14T10:30:12;12.99;51.71
77052;SHT30;65980;44.898;8.602;2024-02-14T10:33:23;13.15;52.43
77052;SHT30;65980;44.898;8.602;2024-02-14T10:36:32;13.86;50.78
77052;SHT30;65980;44.898;8.602;2024-02-14T10:39:38;15.69;45.97
77052;SHT30;65980;44.898;8.602;2024-02-14T10:46:31;13.96;50.25
77052;SHT30;65980;44.898;8.602;2024-02-14T10:54:39;19.35;38.66
77052;SHT30;65980;44.898;8.602;2024-02-14T10:57:47;20.34;38.68
77052;SHT30;65980;44.898;8.602;2024-02-14T11:00:56;20.89;34.91
77052;SHT30;65980;44.898;8.602;2024-02-14T11:04:07;19.42;36.51
77052;SHT30;65980;44.898;8.602;2024-02-14T11:07:29;17.69;40.65
77052;SHT30;65980;44.898;8.602;2024-02-14T11:10:39;16.16;44.11
77052;SHT30;65980;44.898;8.602;2024-02-14T11:13:55;16.56;41.54
77052;SHT30;65980;44.898;8.602;2024-02-14T11:20:39;16.35;42.54
77052;SHT30;65980;44.898;8.602;2024-02-14T11:24:05;15.08;44.47
77052;SHT30;65980;44.898;8.602;2024-02-14T11:27:11;16.32;42.80
77052;SHT30;65980;44.898;8.602;2024-02-14T11:30:26;18.07;38.04
77052;SHT30;65980;44.898;8.602;2024-02-14T11:33:31;17.68;40.45
77052;SHT30;65980;44.898;8.602;2024-02-14T11:36:37;17.56;41.45
77052;SHT30;65980;44.898;8.602;2024-02-14T11:39:42;16.07;44.23
77052;SHT30;65980;44.898;8.602;2024-02-14T11:43:15;15.65;44.54
77052;SHT30;65980;44.898;8.602;2024-02-14T11:46:24;14.97;46.60
77052;SHT30;65980;44.898;8.602;2024-02-14T11:49:35;15.45;45.86
77052;SHT30;65980;44.898;8.602;2024-02-14T11:52:39;15.66;43.00
77052;SHT30;65980;44.898;8.602;2024-02-14T11:55:46;16.47;42.01
77052;SHT30;65980;44.898;8.602;2024-02-14T11:58:50;17.89;40.75
77052;SHT30;65980;44.898;8.602;2024-02-14T12:01:54;21.47;34.78
77052;SHT30;65980;44.898;8.602;2024-02-14T12:05:12;24.03;31.41
77052;SHT30;65980;44.898;8.602;2024-02-14T12:08:19;22.62;29.96
77052;SHT30;65980;44.898;8.602;2024-02-14T12:11:24;25.20;27.83
77052;SHT30;65980;44.898;8.602;2024-02-14T12:14:28;22.57;30.35
77052;SHT30;65980;44.898;8.602;2024-02-14T12:17:37;23.65;30.59
77052;SHT30;65980;44.898;8.602;2024-02-14T12:20:42;22.00;32.04
77052;SHT30;65980;44.898;8.602;2024-02-14T12:23:47;21.00;33.72
77052;SHT30;65980;44.898;8.602;2024-02-14T12:26:52;20.48;36.13
77052;SHT30;65980;44.898;8.602;2024-02-14T12:29:56;19.06;38.82
77052;SHT30;65980;44.898;8.602;2024-02-14T12:33:00;17.49;40.78
77052;SHT30;65980;44.898;8.602;2024-02-14T12:36:11;16.93;42.93
77052;SHT30;65980;44.898;8.602;2024-02-14T12:39:17;16.66;43.51
77052;SHT30;65980;44.898;8.602;2024-02-14T12:42:31;17.62;42.32
77052;SHT30;65980;44.898;8.602;2024-02-14T12:45:37;16.93;43.47
77052;SHT30;65980;44.898;8.602;2024-02-14T12:48:46;17.38;44.75
77052;SHT30;65980;44.898;8.602;2024-02-14T12:56:32;16.00;45.68
77052;SHT30;65980;44.898;8.602;2024-02-14T12:59:47;15.41;44.98
77052;SHT30;65980;44.898;8.602;2024-02-14T13:03:11;15.58;47.01
77052;SHT30;65980;44.898;8.602;2024-02-14T13:07:14;15.34;48.08
77052;SHT30;65980;44.898;8.602;2024-02-14T13:10:24;14.93;50.35
77052;SHT30;65980;44.898;8.602;2024-02-14T13:13:58;14.93;50.19
77052;SHT30;65980;44.898;8.602;2024-02-14T13:17:02;15.44;53.05
77052;SHT30;65980;44.898;8.602;2024-02-14T13:20:11;15.76;50.47
77052;SHT30;65980;44.898;8.602;2024-02-14T13:23:16;16.24;52.74
77052;SHT30;65980;44.898;8.602;2024-02-14T13:26:21;16.66;50.25
77052;SHT30;65980;44.898;8.602;2024-02-14T13:29:30;17.18;47.39
77052;SHT30;65980;44.898;8.602;2024-02-14T13:32:35;17.58;46.83
77052;SHT30;65980;44.898;8.602;2024-02-14T13:36:24;17.04;47.35
77052;SHT30;65980;44.898;8.602;2024-02-14T13:39:56;16.93;45.48
77052;SHT30;65980;44.898;8.602;2024-02-14T13:43:00;17.32;46.91
77052;SHT30;65980;44.898;8.602;2024-02-14T13:46:15;17.35;45.06
77052;SHT30;65980;44.898;8.602;2024-02-14T13:49:23;17.38;46.26
77052;SHT30;65980;44.898;8.602;2024-02-14T13:52:29;17.55;44.76
77052;SHT30;65980;44.898;8.602;2024-02-14T13:55:53;17.69;44.06
77052;SHT30;65980;44.898;8.602;2024-02-14T13:59:01;17.58;44.04
77052;SHT30;65980;44.898;8.602;2024-02-14T14:02:05;18.03;41.75
77052;SHT30;65980;44.898;8.602;2024-02-14T14:05:09;17.93;43.63
77052;SHT30;65980;44.898;8.602;2024-02-14T14:08:34;18.10;41.44
77052;SHT30;65980;44.898;8.602;2024-02-14T14:11:42;18.23;41.89
77052;SHT30;65980;44.898;8.602;2024-02-14T14:14:55;17.87;38.29
77052;SHT30;65980;44.898;8.602;2024-02-14T14:17:59;18.06;38.52
77052;SHT30;65980;44.898;8.602;2024-02-14T14:21:04;17.36;41.36
77052;SHT30;65980;44.898;8.602;2024-02-14T14:24:09;17.07;43.42
77052;SHT30;65980;44.898;8.602;2024-02-14T14:27:15;17.51;40.99
77052;SHT30;65980;44.898;8.602;2024-02-14T14:30:19;17.66;43.50
77052;SHT30;65980;44.898;8.602;2024-02-14T14:33:38;17.79;41.54
77052;SHT30;65980;44.898;8.602;2024-02-14T14:36:42;17.96;42.08
77052;SHT30;65980;44.898;8.602;2024-02-14T14:39:47;17.94;40.93
77052;SHT30;65980;44.898;8.602;2024-02-14T14:42:51;17.83;42.21
77052;SHT30;65980;44.898;8.602;2024-02-14T14:45:56;17.76;41.47
77052;SHT30;65980;44.898;8.602;2024-02-14T14:49:01;17.49;42.65
77052;SHT30;65980;44.898;8.602;2024-02-14T14:52:05;17.52;45.22
77052;SHT30;65980;44.898;8.602;2024-02-14T14:55:10;17.07;46.91
77052;SHT30;65980;44.898;8.602;2024-02-14T14:58:14;17.66;46.93
77052;SHT30;65980;44.898;8.602;2024-02-14T15:01:18;17.61;47.89
77052;SHT30;65980;44.898;8.602;2024-02-14T15:04:23;17.56;48.43
77052;SHT30;65980;44.898;8.602;2024-02-14T15:07:27;17.08;49.29
77052;SHT30;65980;44.898;8.602;2024-02-14T15:10:40;17.14;49.12
77052;SHT30;65980;44.898;8.602;2024-02-14T15:13:44;17.04;49.34
77052;SHT30;65980;44.898;8.602;2024-02-14T15:16:49;17.13;49.34
77052;SHT30;65980;44.898;8.602;2024-02-14T15:19:54;16.84;50.01
77052;SHT30;65980;44.898;8.602;2024-02-14T15:22:58;16.59;50.90
77052;SHT30;65980;44.898;8.602;2024-02-14T15:26:02;16.51;51.88
77052;SHT30;65980;44.898;8.602;2024-02-14T15:29:07;16.32;53.76
77052;SHT30;65980;44.898;8.602;2024-02-14T15:32:33;16.44;53.83
77052;SHT30;65980;44.898;8.602;2024-02-14T15:35:56;16.62;52.20
77052;SHT30;65980;44.898;8.602;2024-02-14T15:39:01;16.59;53.72
77052;SHT30;65980;44.898;8.602;2024-02-14T15:42:06;16.44;52.43
77052;SHT30;65980;44.898;8.602;2024-02-14T15:45:10;16.34;52.47
77052;SHT30;65980;44.898;8.602;2024-02-14T15:48:20;15.99;55.41
77052;SHT30;65980;44.898;8.602;2024-02-14T15:51:24;15.80;55.21
77052;SHT30;65980;44.898;8.602;2024-02-14T15:54:31;15.93;54.75
77052;SHT30;65980;44.898;8.602;2024-02-14T15:57:35;15.87;54.97
77052;SHT30;65980;44.898;8.602;2024-02-14T16:00:39;15.73;55.79
77052;SHT30;65980;44.898;8.602;2024-02-14T16:03:43;15.28;58.52
77052;SHT30;65980;44.898;8.602;2024-02-14T16:06:48;15.17;59.09
77052;SHT30;65980;44.898;8.602;2024-02-14T16:09:52;15.36;58.86
77052;SHT30;65980;44.898;8.602;2024-02-14T16:13:07;15.48;58.81
77052;SHT30;65980;44.898;8.602;2024-02-14T16:16:11;15.51;58.60
77052;SHT30;65980;44.898;8.602;2024-02-14T16:19:15;15.54;58.28
77052;SHT30;65980;44.898;8.602;2024-02-14T16:22:19;15.18;59.08
77052;SHT30;65980;44.898;8.602;2024-02-14T16:25:23;15.18;58.93
77052;SHT30;65980;44.898;8.602;2024-02-14T16:28:27;15.08;58.91
77052;SHT30;65980;44.898;8.602;2024-02-14T16:31:40;14.61;60.14
77052;SHT30;65980;44.898;8.602;2024-02-14T16:34:44;14.73;60.17
77052;SHT30;65980;44.898;8.602;2024-02-14T16:37:53;14.79;59.37
77052;SHT30;65980;44.898;8.602;2024-02-14T16:40:58;14.68;60.00
77052;SHT30;65980;44.898;8.602;2024-02-14T16:44:03;14.62;60.12
77052;SHT30;65980;44.898;8.602;2024-02-14T16:47:07;14.44;60.97
77052;SHT30;65980;44.898;8.602;2024-02-14T16:50:12;14.31;61.22
77052;SHT30;65980;44.898;8.602;2024-02-14T16:53:15;14.20;62.14
77052;SHT30;65980;44.898;8.602;2024-02-14T16:56:20;14.10;62.13
77052;SHT30;65980;44.898;8.602;2024-02-14T16:59:24;14.07;62.40
77052;SHT30;65980;44.898;8.602;2024-02-14T17:02:29;14.01;62.68
77052;SHT30;65980;44.898;8.602;2024-02-14T17:05:34;14.00;63.26
77052;SHT30;65980;44.898;8.602;2024-02-14T17:08:40;13.97;63.19
77052;SHT30;65980;44.898;8.602;2024-02-14T17:11:46;14.03;62.92
77052;SHT30;65980;44.898;8.602;2024-02-14T17:14:50;14.03;62.70
77052;SHT30;65980;44.898;8.602;2024-02-14T17:17:57;13.96;63.40
77052;SHT30;65980;44.898;8.602;2024-02-14T17:21:12;13.91;63.48
77052;SHT30;65980;44.898;8.602;2024-02-14T17:24:18;13.89;64.13
77052;SHT30;65980;44.898;8.602;2024-02-14T17:27:24;13.84;64.16
77052;SHT30;65980;44.898;8.602;2024-02-14T17:30:36;13.77;63.86
77052;SHT30;65980;44.898;8.602;2024-02-14T17:33:52;13.62;64.19
77052;SHT30;65980;44.898;8.602;2024-02-14T17:36:57;13.51;65.95
77052;SHT30;65980;44.898;8.602;2024-02-14T17:40:02;13.44;65.69
77052;SHT30;65980;44.898;8.602;2024-02-14T17:43:13;13.32;65.39
77052;SHT30;65980;44.898;8.602;2024-02-14T17:46:24;13.25;65.52
77052;SHT30;65980;44.898;8.602;2024-02-14T17:49:29;13.21;65.79
77052;SHT30;65980;44.898;8.602;2024-02-14T17:52:33;13.21;65.72
77052;SHT30;65980;44.898;8.602;2024-02-14T17:55:37;13.21;66.62
77052;SHT30;65980;44.898;8.602;2024-02-14T17:58:40;13.11;66.27
77052;SHT30;65980;44.898;8.602;2024-02-14T18:01:45;12.79;67.34
77052;SHT30;65980;44.898;8.602;2024-02-14T18:04:50;12.73;67.66
77052;SHT30;65980;44.898;8.602;2024-02-14T18:07:55;12.75;66.94
77052;SHT30;65980;44.898;8.602;2024-02-14T18:11:00;12.60;68.08
77052;SHT30;65980;44.898;8.602;2024-02-14T18:14:06;12.46;68.77
77052;SHT30;65980;44.898;8.602;2024-02-14T18:17:10;12.45;68.91
77052;SHT30;65980;44.898;8.602;2024-02-14T18:20:14;12.45;68.13
77052;SHT30;65980;44.898;8.602;2024-02-14T18:23:18;12.46;67.81
77052;SHT30;65980;44.898;8.602;2024-02-14T18:26:23;12.39;68.46
77052;SHT30;65980;44.898;8.602;2024-02-14T18:29:28;12.37;68.56
77052;SHT30;65980;44.898;8.602;2024-02-14T18:32:33;12.38;68.57
77052;SHT30;65980;44.898;8.602;2024-02-14T18:36:07;12.38;68.50
77052;SHT30;65980;44.898;8.602;2024-02-14T18:39:18;12.29;68.51
77052;SHT30;65980;44.898;8.602;2024-02-14T18:42:27;12.21;69.44
77052;SHT30;65980;44.898;8.602;2024-02-14T18:45:38;12.13;70.38
77052;SHT30;65980;44.898;8.602;2024-02-14T18:48:49;11.84;70.39
77052;SHT30;65980;44.898;8.602;2024-02-14T18:51:56;11.08;72.68
77052;SHT30;65980;44.898;8.602;2024-02-14T18:55:09;11.03;72.62
77052;SHT30;65980;44.898;8.602;2024-02-14T18:58:17;10.86;73.74
77052;SHT30;65980;44.898;8.602;2024-02-14T19:01:23;11.06;73.19
77052;SHT30;65980;44.898;8.602;2024-02-14T19:04:33;11.11;73.55
77052;SHT30;65980;44.898;8.602;2024-02-14T19:07:44;11.20;73.05
77052;SHT30;65980;44.898;8.602;2024-02-14T19:10:49;11.25;72.71
77052;SHT30;65980;44.898;8.602;2024-02-14T19:13:52;11.32;71.60
77052;SHT30;65980;44.898;8.602;2024-02-14T19:16:58;11.34;72.01
77052;SHT30;65980;44.898;8.602;2024-02-14T19:20:03;11.39;72.05
77052;SHT30;65980;44.898;8.602;2024-02-14T19:23:12;11.31;72.10
77052;SHT30;65980;44.898;8.602;2024-02-14T19:26:17;11.22;72.95
77052;SHT30;65980;44.898;8.602;2024-02-14T19:29:26;11.21;72.40
77052;SHT30;65980;44.898;8.602;2024-02-14T19:32:34;11.07;72.07
77052;SHT30;65980;44.898;8.602;2024-02-14T19:35:45;9.97;75.62
77052;SHT30;65980;44.898;8.602;2024-02-14T19:38:50;9.63;77.45
77052;SHT30;65980;44.898;8.602;2024-02-14T19:41:54;9.67;77.24
77052;SHT30;65980;44.898;8.602;2024-02-14T19:45:06;9.93;76.31
77052;SHT30;65980;44.898;8.602;2024-02-14T19:48:13;9.83;75.95
77052;SHT30;65980;44.898;8.602;2024-02-14T19:51:23;10.01;75.65
77052;SHT30;65980;44.898;8.602;2024-02-14T19:54:27;10.11;74.97
77052;SHT30;65980;44.898;8.602;2024-02-14T19:57:35;9.90;76.13
77052;SHT30;65980;44.898;8.602;2024-02-14T20:00:42;10.04;75.76
77052;SHT30;65980;44.898;8.602;2024-02-14T20:03:50;10.18;75.25
77052;SHT30;65980;44.898;8.602;2024-02-14T20:06:57;10.30;74.90
77052;SHT30;65980;44.898;8.602;2024-02-14T20:10:02;10.27;74.96
77052;SHT30;65980;44.898;8.602;2024-02-14T20:13:11;10.22;74.14
77052;SHT30;65980;44.898;8.602;2024-02-14T20:16:15;10.05;75.05
77052;SHT30;65980;44.898;8.602;2024-02-14T20:19:19;9.79;76.41
77052;SHT30;65980;44.898;8.602;2024-02-14T20:22:25;9.95;76.19
77052;SHT30;65980;44.898;8.602;2024-02-14T20:25:37;9.90;75.14
77052;SHT30;65980;44.898;8.602;2024-02-14T20:28:42;9.91;74.55
77052;SHT30;65980;44.898;8.602;2024-02-14T20:31:50;9.89;75.06
77052;SHT30;65980;44.898;8.602;2024-02-14T20:35:02;9.87;74.66
77052;SHT30;65980;44.898;8.602;2024-02-14T20:38:10;9.73;75.27
77052;SHT30;65980;44.898;8.602;2024-02-14T20:41:16;9.75;75.36
77052;SHT30;65980;44.898;8.602;2024-02-14T20:44:21;9.79;74.65
77052;SHT30;65980;44.898;8.602;2024-02-14T20:47:28;9.79;73.67
77052;SHT30;65980;44.898;8.602;2024-02-14T20:50:33;9.76;74.23
77052;SHT30;65980;44.898;8.602;2024-02-14T20:53:43;9.75;73.61
77052;SHT30;65980;44.898;8.602;2024-02-14T20:56:46;9.52;73.41
77052;SHT30;65980;44.898;8.602;2024-02-14T20:59:57;9.46;73.63
77052;SHT30;65980;44.898;8.602;2024-02-14T21:03:00;9.45;74.08
77052;SHT30;65980;44.898;8.602;2024-02-14T21:06:05;9.49;73.87
77052;SHT30;65980;44.898;8.602;2024-02-14T21:09:10;9.63;73.27
77052;SHT30;65980;44.898;8.602;2024-02-14T21:12:18;9.63;72.72
77052;SHT30;65980;44.898;8.602;2024-02-14T21:15:25;9.56;73.37
77052;SHT30;65980;44.898;8.602;2024-02-14T21:18:30;9.45;73.73
77052;SHT30;65980;44.898;8.602;2024-02-14T21:21:35;9.48;73.71
77052;SHT30;65980;44.898;8.602;2024-02-14T21:24:40;9.27;74.34
77052;SHT30;65980;44.898;8.602;2024-02-14T21:27:43;9.03;74.62
77052;SHT30;65980;44.898;8.602;2024-02-14T21:30:49;8.77;75.66
77052;SHT30;65980;44.898;8.602;2024-02-14T21:33:54;8.58;76.44
77052;SHT30;65980;44.898;8.602;2024-02-14T21:36:58;8.73;76.18
77052;SHT30;65980;44.898;8.602;2024-02-14T21:40:05;8.70;76.60